createdAt,value
2018-02-11T00:00:59.959Z,10.80
2018-02-11T00:03:27.305Z,11.27
2018-02-11T00:05:54.677Z,10.70
2018-02-11T00:08:22.010Z,9.43
2018-02-11T00:10:49.371Z,9.57
2018-02-11T00:13:16.703Z,9.53
2018-02-11T00:15:44.094Z,10.63
2018-02-11T00:18:11.451Z,8.73
2018-02-11T00:20:38.819Z,9.73
2018-02-11T00:23:10.051Z,8.67
2018-02-11T00:25:37.416Z,8.90
2018-02-11T00:28:04.747Z,8.80
2018-02-11T00:30:32.078Z,9.37
2018-02-11T00:32:59.707Z,10.33
2018-02-11T00:35:27.087Z,9.07
2018-02-11T00:38:00.201Z,8.57
2018-02-11T00:40:27.542Z,9.33
2018-02-11T00:42:54.905Z,8.77
2018-02-11T00:45:22.238Z,10.57
2018-02-11T00:47:49.599Z,9.87
2018-02-11T00:50:16.932Z,8.30
2018-02-11T00:52:44.318Z,8.10
2018-02-11T00:55:11.652Z,9.17
2018-02-11T00:57:39.012Z,9.73
2018-02-11T01:00:06.344Z,8.90
2018-02-11T01:02:33.720Z,8.50
2018-02-11T01:05:01.059Z,8.77
2018-02-11T01:07:28.423Z,8.80
2018-02-11T01:09:55.758Z,10.07
2018-02-11T01:12:23.123Z,9.03
2018-02-11T01:14:50.471Z,9.17
2018-02-11T01:17:17.834Z,8.70
2018-02-11T01:19:45.182Z,8.97
2018-02-11T01:22:12.537Z,9.20
2018-02-11T01:24:39.921Z,8.70
2018-02-11T01:27:07.271Z,10.30
2018-02-11T01:29:34.634Z,10.63
2018-02-11T01:32:01.979Z,9.20
2018-02-11T01:34:29.329Z,9.83
2018-02-11T01:36:56.679Z,9.27
2018-02-11T01:39:24.037Z,9.80
2018-02-11T01:41:51.368Z,9.43
2018-02-11T01:44:18.757Z,9.73
2018-02-11T01:46:46.097Z,9.70
2018-02-11T01:49:13.463Z,9.83
2018-02-11T01:51:40.794Z,10.10
2018-02-11T01:54:08.162Z,9.40
2018-02-11T01:56:35.494Z,9.30
2018-02-11T01:59:02.862Z,10.27
2018-02-11T02:01:30.198Z,8.30
2018-02-11T02:03:57.551Z,8.70
2018-02-11T02:06:24.905Z,8.57
2018-02-11T02:08:52.271Z,8.70
2018-02-11T02:11:19.607Z,8.53
2018-02-11T02:13:46.971Z,9.73
2018-02-11T02:16:14.307Z,8.70
2018-02-11T02:18:41.664Z,8.70
2018-02-11T02:21:08.993Z,9.17
2018-02-11T02:23:36.426Z,8.30
2018-02-11T02:26:03.756Z,9.40
2018-02-11T02:28:31.088Z,9.73
2018-02-11T02:30:58.446Z,10.13
2018-02-11T02:33:25.793Z,9.07
2018-02-11T02:35:53.158Z,8.70
2018-02-11T02:38:20.498Z,9.53
2018-02-11T02:40:47.866Z,9.50
2018-02-11T02:43:15.197Z,9.27
2018-02-11T02:45:42.689Z,8.93
2018-02-11T02:48:10.020Z,9.27
2018-02-11T02:50:37.387Z,9.20
2018-02-11T02:53:04.721Z,8.67
2018-02-11T02:55:32.097Z,9.03
2018-02-11T02:57:59.435Z,8.77
2018-02-11T03:00:26.857Z,9.67
2018-02-11T03:02:54.183Z,9.07
2018-02-11T03:05:21.547Z,8.13
2018-02-11T03:07:48.883Z,10.07
2018-02-11T03:10:16.251Z,11.60
2018-02-11T03:12:43.593Z,18.83
2018-02-11T03:15:10.963Z,11.70
2018-02-11T03:17:38.311Z,12.20
2018-02-11T03:20:05.673Z,10.07
2018-02-11T03:22:33.038Z,10.00
2018-02-11T03:25:00.402Z,9.57
2018-02-11T03:27:27.736Z,9.33
2018-02-11T03:29:55.081Z,8.23
2018-02-11T03:32:22.439Z,9.07
2018-02-11T03:34:49.775Z,7.90
2018-02-11T03:37:17.136Z,8.10
2018-02-11T03:39:44.503Z,8.43
2018-02-11T03:42:11.899Z,9.80
2018-02-11T03:44:39.230Z,8.90
2018-02-11T03:47:06.601Z,8.17
2018-02-11T03:49:33.935Z,8.50
2018-02-11T03:52:01.283Z,7.60
2018-02-11T03:54:28.654Z,7.73
2018-02-11T03:56:55.990Z,7.57
2018-02-11T03:59:23.340Z,7.27
2018-02-11T04:01:50.686Z,7.43
2018-02-11T04:04:18.046Z,9.10
2018-02-11T04:06:45.382Z,7.27
2018-02-11T04:09:12.769Z,6.83
2018-02-11T04:11:40.101Z,7.90
2018-02-11T04:14:07.434Z,7.40
2018-02-11T04:16:34.786Z,7.47
2018-02-11T04:19:02.132Z,8.40
2018-02-11T04:21:29.491Z,7.17
2018-02-11T04:23:56.847Z,7.87
2018-02-11T04:26:24.218Z,8.77
2018-02-11T04:28:51.545Z,7.60
2018-02-11T04:31:18.909Z,7.67
2018-02-11T04:33:46.242Z,7.73
2018-02-11T04:36:13.640Z,7.57
2018-02-11T04:38:40.981Z,7.87
2018-02-11T04:41:08.358Z,8.13
2018-02-11T04:43:35.722Z,7.57
2018-02-11T04:46:03.070Z,7.50
2018-02-11T04:48:30.428Z,7.70
2018-02-11T04:50:57.761Z,7.33
2018-02-11T04:53:25.140Z,7.83
2018-02-11T04:55:52.469Z,7.60
2018-02-11T04:58:19.827Z,6.90
2018-02-11T05:00:47.167Z,7.30
2018-02-11T05:03:14.596Z,7.03
2018-02-11T05:05:41.936Z,6.87
2018-02-11T05:08:09.262Z,6.77
2018-02-11T05:10:36.618Z,6.90
2018-02-11T05:13:03.957Z,6.60
2018-02-11T05:15:31.329Z,6.77
2018-02-11T05:17:58.682Z,7.43
2018-02-11T05:20:26.033Z,7.33
2018-02-11T05:22:53.374Z,7.73
2018-02-11T05:25:20.774Z,7.10
2018-02-11T05:27:48.097Z,7.10
2018-02-11T05:30:15.436Z,7.87
2018-02-11T05:32:42.802Z,7.13
2018-02-11T05:35:10.145Z,7.20
2018-02-11T05:37:37.497Z,6.10
2018-02-11T05:40:04.831Z,7.00
2018-02-11T05:42:32.186Z,5.53
2018-02-11T05:44:59.517Z,6.20
2018-02-11T05:47:26.872Z,5.43
2018-02-11T05:49:54.198Z,5.97
2018-02-11T05:52:21.579Z,6.00
2018-02-11T05:54:48.914Z,6.20
2018-02-11T05:57:16.251Z,5.10
2018-02-11T05:59:43.604Z,5.17
2018-02-11T06:02:10.932Z,6.17
2018-02-11T06:04:38.282Z,5.57
2018-02-11T06:07:05.609Z,5.93
2018-02-11T06:09:32.968Z,5.73
2018-02-11T06:12:00.282Z,5.87
2018-02-11T06:14:27.643Z,5.97
2018-02-11T06:16:54.966Z,5.50
2018-02-11T06:19:22.300Z,5.47
2018-02-11T06:21:49.650Z,5.03
2018-02-11T06:24:16.978Z,5.30
2018-02-11T06:26:44.327Z,5.50
2018-02-11T06:29:11.704Z,5.40
2018-02-11T06:31:39.046Z,5.07
2018-02-11T06:34:06.377Z,5.83
2018-02-11T06:36:33.730Z,5.27
2018-02-11T06:39:01.065Z,5.57
2018-02-11T06:41:28.475Z,5.13
2018-02-11T06:43:56.254Z,5.00
2018-02-11T06:46:23.583Z,5.17
2018-02-11T06:48:50.939Z,5.30
2018-02-11T06:51:18.274Z,4.60
2018-02-11T06:53:45.630Z,5.20
2018-02-11T06:56:12.963Z,4.67
2018-02-11T06:58:40.321Z,5.53
2018-02-11T07:01:07.656Z,4.80
2018-02-11T07:03:35.054Z,4.80
2018-02-11T07:06:02.377Z,4.87
2018-02-11T07:08:29.709Z,5.20
2018-02-11T07:10:57.067Z,4.53
2018-02-11T07:13:24.396Z,4.80
2018-02-11T07:15:51.747Z,5.17
2018-02-11T07:18:19.074Z,5.70
2018-02-11T07:20:46.427Z,4.90
2018-02-11T07:23:13.786Z,4.50
2018-02-11T07:25:41.154Z,7.50
2018-02-11T07:28:08.487Z,8.43
2018-02-11T07:30:35.846Z,4.50
2018-02-11T07:33:03.170Z,4.20
2018-02-11T07:35:30.502Z,4.60
2018-02-11T07:37:57.861Z,5.33
2018-02-11T07:40:25.195Z,4.07
2018-02-11T07:42:52.555Z,3.53
2018-02-11T07:45:19.878Z,3.73
2018-02-11T07:47:47.228Z,4.60
2018-02-11T07:50:14.564Z,4.60
2018-02-11T07:52:42.139Z,4.40
2018-02-11T07:55:09.495Z,4.20
2018-02-11T07:57:36.917Z,4.30
2018-02-11T08:00:04.274Z,4.33
2018-02-11T08:02:31.652Z,4.87
2018-02-11T08:04:59.032Z,5.03
2018-02-11T08:07:26.571Z,7.17
2018-02-11T08:09:54.138Z,7.97
2018-02-11T08:12:21.511Z,4.33
2018-02-11T08:14:48.859Z,4.67
2018-02-11T08:17:16.187Z,4.67
2018-02-11T08:19:43.566Z,3.90
2018-02-11T08:22:10.958Z,4.43
2018-02-11T08:24:38.339Z,4.30
2018-02-11T08:27:05.678Z,4.30
2018-02-11T08:29:33.068Z,4.93
2018-02-11T08:32:00.422Z,4.20
2018-02-11T08:34:27.773Z,4.50
2018-02-11T08:36:55.137Z,4.90
2018-02-11T08:39:22.474Z,4.20
2018-02-11T08:41:49.842Z,4.37
2018-02-11T08:44:17.174Z,4.63
2018-02-11T08:46:44.578Z,4.10
2018-02-11T08:49:11.907Z,4.90
2018-02-11T08:51:39.280Z,5.10
2018-02-11T08:54:06.732Z,4.43
2018-02-11T08:56:34.070Z,4.30
2018-02-11T08:59:01.437Z,4.50
2018-02-11T09:01:28.798Z,4.47
2018-02-11T09:03:57.187Z,6.70
2018-02-11T09:06:24.518Z,5.37
2018-02-11T09:08:51.881Z,4.87
2018-02-11T09:11:19.218Z,5.63
2018-02-11T09:13:46.620Z,4.70
2018-02-11T09:16:13.944Z,3.77
2018-02-11T09:18:41.272Z,3.87
2018-02-11T09:21:08.630Z,4.60
2018-02-11T09:23:35.959Z,4.70
2018-02-11T09:26:03.315Z,4.77
2018-02-11T09:28:30.640Z,4.17
2018-02-11T09:30:57.994Z,4.50
2018-02-11T09:33:25.330Z,4.93
2018-02-11T09:35:52.683Z,3.70
2018-02-11T09:38:20.008Z,3.20
2018-02-11T09:40:47.366Z,3.30
2018-02-11T09:43:14.706Z,2.90
2018-02-11T09:45:42.061Z,2.83
2018-02-11T09:48:09.390Z,2.80
2018-02-11T09:50:36.747Z,2.93
2018-02-11T09:53:04.078Z,2.60
2018-02-11T09:55:31.475Z,2.00
2018-02-11T09:57:58.807Z,2.17
2018-02-11T10:00:26.139Z,2.03
2018-02-11T10:02:53.490Z,2.50
2018-02-11T10:05:20.820Z,2.10
2018-02-11T10:07:48.283Z,2.30
2018-02-11T10:10:15.609Z,2.20
2018-02-11T10:12:42.993Z,1.77
2018-02-11T10:15:10.459Z,1.77
2018-02-11T10:17:37.846Z,1.83
2018-02-11T10:20:05.188Z,1.87
2018-02-11T10:22:32.541Z,1.80
2018-02-11T10:24:59.894Z,1.83
2018-02-11T10:27:27.232Z,1.73
2018-02-11T10:29:54.589Z,1.90
2018-02-11T10:32:21.927Z,2.20
2018-02-11T10:34:49.285Z,1.90
2018-02-11T10:37:16.623Z,1.50
2018-02-11T10:39:43.978Z,1.97
2018-02-11T10:42:11.312Z,1.70
2018-02-11T10:44:38.675Z,2.23
2018-02-11T10:47:06.007Z,1.47
2018-02-11T10:49:33.345Z,1.80
2018-02-11T10:52:00.701Z,1.40
2018-02-11T10:54:28.031Z,1.80
2018-02-11T10:56:55.380Z,2.00
2018-02-11T10:59:22.719Z,1.50
2018-02-11T11:01:50.084Z,2.17
2018-02-11T11:04:17.411Z,2.53
2018-02-11T11:06:44.773Z,1.83
2018-02-11T11:09:12.102Z,1.90
2018-02-11T11:11:39.462Z,10.27
2018-02-11T11:14:06.806Z,5.50
2018-02-11T11:16:34.167Z,2.20
2018-02-11T11:19:01.496Z,2.57
2018-02-11T11:21:28.833Z,2.20
2018-02-11T11:23:56.646Z,2.17
2018-02-11T11:26:23.972Z,3.27
2018-02-11T11:28:51.321Z,2.40
2018-02-11T11:31:18.650Z,2.90
2018-02-11T11:33:46.011Z,2.00
2018-02-11T11:36:13.338Z,2.70
2018-02-11T11:38:40.695Z,2.47
2018-02-11T11:41:08.031Z,2.30
2018-02-11T11:43:35.426Z,2.13
2018-02-11T11:46:02.758Z,2.23
2018-02-11T11:48:30.089Z,2.40
2018-02-11T11:50:57.456Z,2.30
2018-02-11T11:53:24.778Z,2.50
2018-02-11T11:55:52.143Z,3.13
2018-02-11T11:58:19.462Z,3.00
2018-02-11T12:00:46.821Z,3.30
2018-02-11T12:03:14.146Z,3.33
2018-02-11T12:05:41.505Z,2.87
2018-02-11T12:08:08.838Z,2.40
2018-02-11T12:10:36.197Z,3.00
2018-02-11T12:13:03.534Z,10.93
2018-02-11T12:15:30.911Z,6.30
2018-02-11T12:17:58.242Z,3.43
2018-02-11T12:20:25.570Z,2.53
2018-02-11T12:22:52.931Z,2.27
2018-02-11T12:25:20.263Z,2.13
2018-02-11T12:27:47.609Z,1.77
2018-02-11T12:30:14.938Z,1.60
2018-02-11T12:32:42.295Z,1.40
2018-02-11T12:35:09.618Z,2.40
2018-02-11T12:37:36.976Z,4.07
2018-02-11T12:40:04.311Z,1.70
2018-02-11T12:42:31.670Z,1.70
2018-02-11T12:44:58.999Z,1.63
2018-02-11T12:47:26.396Z,2.70
2018-02-11T12:49:53.727Z,2.33
2018-02-11T12:52:21.051Z,2.50
2018-02-11T12:54:48.408Z,2.10
2018-02-11T12:57:15.748Z,2.57
2018-02-11T12:59:43.100Z,1.77
2018-02-11T13:02:10.435Z,2.10
2018-02-11T13:04:37.788Z,1.17
2018-02-11T13:07:05.127Z,1.30
2018-02-11T13:09:32.475Z,1.13
2018-02-11T13:11:59.806Z,1.10
2018-02-11T13:14:27.207Z,1.13
2018-02-11T13:16:54.530Z,1.50
2018-02-11T13:19:21.856Z,1.13
2018-02-11T13:21:49.202Z,1.30
2018-02-11T13:24:16.537Z,1.50
2018-02-11T13:26:43.906Z,1.40
2018-02-11T13:29:11.240Z,1.40
2018-02-11T13:31:38.588Z,1.10
2018-02-11T13:34:05.913Z,1.70
2018-02-11T13:36:33.298Z,2.07
2018-02-11T13:39:00.633Z,2.07
2018-02-11T13:41:28.024Z,1.43
2018-02-11T13:43:55.369Z,1.47
2018-02-11T13:46:22.707Z,1.47
2018-02-11T13:48:50.079Z,1.60
2018-02-11T13:51:17.400Z,1.50
2018-02-11T13:53:44.782Z,2.10
2018-02-11T13:56:12.157Z,1.70
2018-02-11T13:58:39.513Z,2.03
2018-02-11T14:01:06.946Z,1.73
2018-02-11T14:03:34.305Z,1.57
2018-02-11T14:06:01.631Z,1.60
2018-02-11T14:08:29.008Z,1.40
2018-02-11T14:10:56.362Z,1.50
2018-02-11T14:13:23.690Z,1.50
2018-02-11T14:15:51.046Z,1.50
2018-02-11T14:18:18.405Z,1.63
2018-02-11T14:20:45.761Z,1.33
2018-02-11T14:23:13.090Z,2.03
2018-02-11T14:25:40.446Z,1.40
2018-02-11T14:28:07.782Z,2.60
2018-02-11T14:30:35.137Z,1.83
2018-02-11T14:33:02.600Z,1.90
2018-02-11T14:35:29.964Z,1.40
2018-02-11T14:37:57.295Z,1.67
2018-02-11T14:40:24.691Z,1.40
2018-02-11T14:42:52.044Z,1.70
2018-02-11T14:45:19.377Z,1.20
2018-02-11T14:47:46.731Z,1.30
2018-02-11T14:50:14.079Z,1.70
2018-02-11T14:52:41.473Z,1.47
2018-02-11T14:55:08.800Z,2.23
2018-02-11T14:57:36.163Z,1.30
2018-02-11T15:00:03.495Z,1.57
2018-02-11T15:02:30.849Z,1.40
2018-02-11T15:04:58.170Z,1.40
2018-02-11T15:07:25.525Z,1.47
2018-02-11T15:09:52.853Z,1.57
2018-02-11T15:12:20.247Z,2.47
2018-02-11T15:14:47.575Z,2.00
2018-02-11T15:17:14.907Z,1.93
2018-02-11T15:19:42.267Z,2.00
2018-02-11T15:22:09.592Z,1.93
2018-02-11T15:24:36.946Z,5.27
2018-02-11T15:27:04.279Z,4.17
2018-02-11T15:29:31.630Z,7.20
2018-02-11T15:31:58.964Z,3.37
2018-02-11T15:34:26.314Z,1.90
2018-02-11T15:36:53.646Z,2.27
2018-02-11T15:39:20.971Z,2.30
2018-02-11T15:41:48.332Z,2.30
2018-02-11T15:44:15.659Z,3.00
2018-02-11T15:46:43.015Z,1.90
2018-02-11T15:49:10.345Z,1.70
2018-02-11T15:51:37.692Z,2.80
2018-02-11T15:54:05.017Z,2.10
2018-02-11T15:56:32.414Z,1.87
2018-02-11T15:58:59.746Z,1.67
2018-02-11T16:01:27.081Z,1.93
2018-02-11T16:03:54.434Z,2.27
2018-02-11T16:06:21.809Z,1.90
2018-02-11T16:08:49.163Z,1.50
2018-02-11T16:11:16.493Z,1.50
2018-02-11T16:13:43.845Z,1.83
2018-02-11T16:16:11.169Z,1.90
2018-02-11T16:18:38.521Z,1.90
2018-02-11T16:21:05.855Z,1.70
2018-02-11T16:23:33.250Z,1.93
2018-02-11T16:26:00.591Z,1.87
2018-02-11T16:28:27.934Z,2.03
2018-02-11T16:30:55.291Z,2.20
2018-02-11T16:33:22.644Z,2.20
2018-02-11T16:35:50.002Z,2.63
2018-02-11T16:38:17.319Z,2.10
2018-02-11T16:40:44.679Z,2.57
2018-02-11T16:43:12.003Z,2.80
2018-02-11T16:45:39.440Z,2.43
2018-02-11T16:48:06.774Z,2.90
2018-02-11T16:50:34.107Z,2.83
2018-02-11T16:53:01.463Z,2.63
2018-02-11T16:55:28.803Z,2.73
2018-02-11T16:57:56.162Z,2.60
2018-02-11T17:00:23.495Z,2.80
2018-02-11T17:02:50.976Z,2.40
2018-02-11T17:05:18.209Z,2.57
2018-02-11T17:07:45.685Z,2.67
2018-02-11T17:10:13.007Z,2.57
2018-02-11T17:12:40.405Z,2.67
2018-02-11T17:15:07.732Z,2.63
2018-02-11T17:17:35.067Z,2.37
2018-02-11T17:20:02.424Z,2.50
2018-02-11T17:22:29.754Z,2.40
2018-02-11T17:24:57.163Z,2.60
2018-02-11T17:27:24.494Z,3.00
2018-02-11T17:29:51.875Z,2.43
2018-02-11T17:32:19.212Z,3.67
2018-02-11T17:34:46.603Z,3.40
2018-02-11T17:37:13.932Z,2.70
2018-02-11T17:39:41.286Z,2.47
2018-02-11T17:42:08.614Z,2.90
2018-02-11T17:44:35.977Z,2.80
2018-02-11T17:47:03.304Z,2.83
2018-02-11T17:49:30.644Z,2.70
2018-02-11T17:51:57.998Z,2.30
2018-02-11T17:54:25.333Z,2.00
2018-02-11T17:56:52.686Z,2.90
2018-02-11T17:59:20.014Z,2.77
2018-02-11T18:01:47.404Z,2.53
2018-02-11T18:04:14.723Z,2.90
2018-02-11T18:06:42.098Z,2.80
2018-02-11T18:09:09.440Z,2.00
2018-02-11T18:11:36.771Z,2.00
2018-02-11T18:14:04.119Z,2.10
2018-02-11T18:16:31.450Z,2.47
2018-02-11T18:18:58.822Z,2.30
2018-02-11T18:21:26.153Z,2.37
2018-02-11T18:23:53.502Z,2.10
2018-02-11T18:26:20.828Z,1.77
2018-02-11T18:28:48.192Z,2.33
2018-02-11T18:31:15.527Z,2.23
2018-02-11T18:33:42.877Z,2.70
2018-02-11T18:36:10.203Z,2.50
2018-02-11T18:38:37.590Z,2.07
2018-02-11T18:41:04.918Z,2.57
2018-02-11T18:43:32.246Z,2.30
2018-02-11T18:45:59.606Z,3.23
2018-02-11T18:48:26.940Z,2.37
2018-02-11T18:50:54.298Z,2.20
2018-02-11T18:53:21.626Z,2.10
2018-02-11T18:55:48.978Z,3.00
2018-02-11T18:58:16.307Z,3.07
2018-02-11T19:00:43.665Z,2.60
2018-02-11T19:03:11.006Z,2.30
2018-02-11T19:05:38.363Z,2.80
2018-02-11T19:08:05.694Z,2.20
2018-02-11T19:10:33.055Z,2.30
2018-02-11T19:13:00.423Z,2.30
2018-02-11T19:15:27.752Z,1.97
2018-02-11T19:17:55.118Z,2.80
2018-02-11T19:20:22.614Z,2.40
2018-02-11T19:22:49.974Z,2.40
2018-02-11T19:25:17.301Z,3.73
2018-02-11T19:27:44.655Z,2.87
2018-02-11T19:30:11.991Z,2.43
2018-02-11T19:32:39.347Z,2.50
2018-02-11T19:35:06.713Z,2.50
2018-02-11T19:37:34.074Z,2.20
2018-02-11T19:40:01.407Z,4.30
2018-02-11T19:42:29.211Z,2.57
2018-02-11T19:44:56.541Z,2.70
2018-02-11T19:47:23.869Z,2.47
2018-02-11T19:49:51.213Z,2.63
2018-02-11T19:52:18.551Z,3.20
2018-02-11T19:54:45.929Z,2.43
2018-02-11T19:57:13.262Z,3.70
2018-02-11T19:59:40.618Z,2.70
2018-02-11T20:02:07.956Z,2.53
2018-02-11T20:04:35.336Z,2.37
2018-02-11T20:07:02.669Z,3.23
2018-02-11T20:09:30.005Z,3.43
2018-02-11T20:11:57.359Z,2.87
2018-02-11T20:14:24.698Z,3.10
2018-02-11T20:16:52.042Z,3.27
2018-02-11T20:19:19.370Z,2.43
2018-02-11T20:21:46.736Z,2.20
2018-02-11T20:24:14.063Z,2.47
2018-02-11T20:26:41.422Z,2.67
2018-02-11T20:29:08.747Z,2.70
2018-02-11T20:31:36.103Z,2.50
2018-02-11T20:34:03.421Z,2.50
2018-02-11T20:36:30.797Z,3.13
2018-02-11T20:38:58.125Z,3.77
2018-02-11T20:41:25.450Z,4.30
2018-02-11T20:43:52.802Z,2.90
2018-02-11T20:46:20.135Z,3.60
2018-02-11T20:48:47.483Z,2.50
2018-02-11T20:51:14.816Z,3.23
2018-02-11T20:53:42.175Z,3.17
2018-02-11T20:56:09.510Z,3.10
2018-02-11T20:58:36.869Z,2.70
2018-02-11T21:01:04.234Z,3.70
2018-02-11T21:03:31.692Z,3.17
2018-02-11T21:05:59.157Z,3.97
2018-02-11T21:08:26.485Z,2.70
2018-02-11T21:10:53.838Z,2.60
2018-02-11T21:13:21.170Z,4.57
2018-02-11T21:15:48.526Z,3.87
2018-02-11T21:18:15.858Z,3.80
2018-02-11T21:20:43.226Z,4.60
2018-02-11T21:23:10.550Z,3.77
2018-02-11T21:25:37.942Z,3.30
2018-02-11T21:28:05.307Z,3.40
2018-02-11T21:30:32.646Z,3.37
2018-02-11T21:33:00.004Z,3.33
2018-02-11T21:35:27.337Z,2.87
2018-02-11T21:37:54.785Z,3.03
2018-02-11T21:40:22.050Z,2.70
2018-02-11T21:42:49.404Z,3.03
2018-02-11T21:45:16.762Z,3.87
2018-02-11T21:47:44.118Z,3.43
2018-02-11T21:50:11.445Z,3.50
2018-02-11T21:52:38.800Z,3.80
2018-02-11T21:55:06.132Z,4.40
2018-02-11T21:57:33.503Z,5.23
2018-02-11T22:00:00.859Z,3.73
2018-02-11T22:02:28.189Z,5.03
2018-02-11T22:04:55.562Z,3.87
2018-02-11T22:07:22.906Z,3.90
2018-02-11T22:09:50.264Z,3.33
2018-02-11T22:12:17.604Z,3.77
2018-02-11T22:14:44.963Z,3.93
2018-02-11T22:17:12.304Z,3.43
2018-02-11T22:19:39.692Z,3.70
2018-02-11T22:22:07.017Z,2.83
2018-02-11T22:24:34.377Z,3.00
2018-02-11T22:27:01.757Z,2.60
2018-02-11T22:29:29.119Z,3.27
2018-02-11T22:31:56.450Z,2.73
2018-02-11T22:34:23.805Z,3.03
2018-02-11T22:36:51.134Z,3.40
2018-02-11T22:39:19.379Z,2.80
2018-02-11T22:41:46.717Z,2.80
2018-02-11T22:44:14.048Z,3.20
2018-02-11T22:46:41.431Z,3.40
2018-02-11T22:49:08.762Z,2.97
2018-02-11T22:51:36.115Z,3.17
2018-02-11T22:54:03.452Z,2.87
2018-02-11T22:56:30.835Z,2.83
2018-02-11T22:58:58.178Z,3.80
2018-02-11T23:01:25.545Z,4.27
2018-02-11T23:03:52.894Z,4.13
2018-02-11T23:06:20.240Z,3.60
2018-02-11T23:08:47.618Z,3.20
2018-02-11T23:11:14.947Z,2.57
2018-02-11T23:13:42.397Z,1.73
2018-02-11T23:16:09.698Z,1.43
2018-02-11T23:18:37.054Z,1.60
2018-02-11T23:21:04.379Z,1.60
2018-02-11T23:23:31.745Z,1.40
2018-02-11T23:25:59.090Z,1.20
2018-02-11T23:28:26.451Z,1.77
2018-02-11T23:30:53.781Z,1.30
2018-02-11T23:33:21.200Z,1.57
2018-02-11T23:35:48.535Z,0.80
2018-02-11T23:38:15.868Z,1.30
2018-02-11T23:40:43.227Z,1.23
2018-02-11T23:43:10.563Z,1.27
2018-02-11T23:45:37.917Z,1.40
2018-02-11T23:48:05.247Z,1.10
2018-02-11T23:50:32.621Z,1.30
2018-02-11T23:52:59.955Z,1.40
2018-02-11T23:55:27.345Z,1.50
2018-02-11T23:57:54.686Z,1.33
